WetterOnline ( https://www.wetteronline.de )

Wetter aktuell Todtmoos

Aktuelles Wetter: Feldberg/Schwarzwald (1493m)

6-stündlich | Neueste Meldungen
Ortszeit Temperatur Wetter
Mo, 29.11. 19:00 -8.0° C Schneefall
Mo, 29.11. 13:00 -7.6° C Nebel
Mo, 29.11. 7:00 -7.0° C Nebel
Mo, 29.11. 1:00 -6.3° C Schneefall
So, 28.11. 19:00 -6.0° C leichter Schneefall
So, 28.11. 13:00 -6.5° C leichter Schneefall
So, 28.11. 7:00 -6.6° C Nebel
So, 28.11. 1:00 -6.1° C Nebel
Ortszeit Temperatur Wetter
Di, 30.11. 0:30 -7.2° C Schneefall
Di, 30.11. 0:20 -7.2° C Schneefall
Di, 30.11. 0:10 -7.2° C Schneefall
Di, 30.11. 0:00 -7.2° C leichter Schneefall
Mo, 29.11. 23:50 -7.2° C leichter Schneefall
Mo, 29.11. 23:40 -7.3° C leichter Schneefall
Mo, 29.11. 23:30 -7.3° C Schneefall
Mo, 29.11. 23:00 -7.2° C leichter Schneefall
Mo, 29.11. 22:30 -7.2° C Schneefall
Mo, 29.11. 22:00 -7.3° C Schneefall
Mo, 29.11. 21:30 -7.6° C leichter Schneefall
Ortszeit Relative Feuchte Sichtweite
Mo, 29.11. 19:00 90% 0.2 km
Mo, 29.11. 13:00 92% <100 m
Mo, 29.11. 7:00 93% <100 m
Mo, 29.11. 1:00 93% 100 m
So, 28.11. 19:00 93% 100 m
So, 28.11. 13:00 93% <100 m
So, 28.11. 7:00 96% 0.2 km
So, 28.11. 1:00 98% 100 m
Ortszeit Relative Feuchte Sichtweite
Di, 30.11. 0:30 92% <100 m
Di, 30.11. 0:20 92% -
Di, 30.11. 0:10 92% -
Di, 30.11. 0:00 92% <100 m
Mo, 29.11. 23:50 92% -
Mo, 29.11. 23:40 92% -
Mo, 29.11. 23:30 92% 100 m
Mo, 29.11. 23:00 92% <100 m
Mo, 29.11. 22:30 91% 100 m
Mo, 29.11. 22:00 92% <100 m
Mo, 29.11. 21:30 92% <100 m
Ortszeit Niederschlagsmenge Niederschlagsart
Mo, 29.11. 19:00 2 l/m2 in 12 Std. Schnee
Mo, 29.11. 13:00 2 l/m2 in 6 Std. Schnee
Mo, 29.11. 7:00 7 l/m2 in 12 Std. Schnee
Mo, 29.11. 1:00 4 l/m2 in 6 Std. Schnee
So, 28.11. 19:00 0.8 l/m2 in 12 Std. Schnee
So, 28.11. 13:00 0.1 l/m2 in 6 Std. Schnee
So, 28.11. 7:00 0.2 l/m2 in 12 Std. Schnee
So, 28.11. 1:00 0.1 l/m2 in 6 Std. Schnee
Ortszeit Niederschlagsmenge Niederschlagsart
Di, 30.11. 0:30 0.1 l/m2 in 1 Std. -
Di, 30.11. 0:20 keine Meldung -
Di, 30.11. 0:10 keine Meldung -
Di, 30.11. 0:00 0.1 l/m2 in 1 Std. Schnee
Mo, 29.11. 23:50 keine Meldung -
Mo, 29.11. 23:40 keine Meldung -
Mo, 29.11. 23:30 0.1 l/m2 in 1 Std. -
Mo, 29.11. 23:00 0.1 l/m2 in 1 Std. Schnee
Mo, 29.11. 22:30 0.1 l/m2 in 1 Std. -
Mo, 29.11. 22:00 0.1 l/m2 in 1 Std. Schnee
Mo, 29.11. 21:30 0.1 l/m2 in 1 Std. -
Ortszeit Stärke Spitze Richtung
km/h Bft. km/h Grad Sektor
Mo, 29.11. 19:00 32 5 68 260° W
Mo, 29.11. 13:00 25 4 61 300° NW
Mo, 29.11. 7:00 35 5 57 340° N
Mo, 29.11. 1:00 28 4 39 340° N
So, 28.11. 19:00 17 3 33 300° NW
So, 28.11. 13:00 24 4 41 210° SW
So, 28.11. 7:00 25 4 47 250° W
So, 28.11. 1:00 31 5 54 230° SW
Ortszeit Stärke Spitze Richtung
km/h Bft. km/h Grad Sektor
Di, 30.11. 0:30 - - 52 - -
Di, 30.11. 0:20 - - - - -
Di, 30.11. 0:10 44 6 - 240° SW
Di, 30.11. 0:00 41 6 54 240° SW
Mo, 29.11. 23:50 41 6 - 240° SW
Mo, 29.11. 23:40 39 6 - 240° SW
Mo, 29.11. 23:30 36 5 50 250° W
Mo, 29.11. 23:00 37 5 57 250° W
Mo, 29.11. 22:30 35 5 57 260° W
Mo, 29.11. 22:00 32 5 43 260° W
Mo, 29.11. 21:30 26 4 44 270° W
Ortszeit Untergrenze Bedeckung Gattung
total tief tief mittel hoch
Mo, 29.11. 19:00 <30 m 7/8 0/8 - - -
Mo, 29.11. 13:00 <30 m 8/8 0/8 - - -
Mo, 29.11. 7:00 <30 m 8/8 0/8 - - -
Mo, 29.11. 1:00 <30 m 8/8 0/8 - - -
So, 28.11. 19:00 <30 m 8/8 0/8 - - -
So, 28.11. 13:00 <30 m 8/8 0/8 - - -
So, 28.11. 7:00 <30 m 8/8 0/8 - - -
So, 28.11. 1:00 <30 m 8/8 0/8 - - -
Ortszeit Bedeckungsgrad in Achtel und Wolkenuntergrenze
Di, 30.11. 0:30 8(<30m)
Di, 30.11. 0:20 8(<30m)
Di, 30.11. 0:10 8(<30m)
Di, 30.11. 0:00 8(<30m)
Mo, 29.11. 23:50 8(<30m)
Mo, 29.11. 23:40 8(<30m)
Mo, 29.11. 23:30 8(<30m)
Mo, 29.11. 23:00 8(<30m)
Mo, 29.11. 22:30 7(<30m)
Mo, 29.11. 22:00 8(<30m)
Mo, 29.11. 21:30 8(<30m)
Ortszeit Stationsdruck (hPa) Tendenz (hPa in 3 Std.)
Mo, 29.11. 19:00 842 + 2,1
Mo, 29.11. 13:00 838 + 1,8
Mo, 29.11. 7:00 834 + 2,0
Mo, 29.11. 1:00 830 + 1,0
So, 28.11. 19:00 828 + 1,0
So, 28.11. 13:00 827 - 0,2
So, 28.11. 7:00 827 0,0
So, 28.11. 1:00 827 0,0
Ortszeit Stationsdruck (hPa) Tendenz (hPa in 3 Std.)
Di, 30.11. 0:30 845 + 1,0
Di, 30.11. 0:20 845 keine Meldung
Di, 30.11. 0:10 845 keine Meldung
Di, 30.11. 0:00 845 + 1,4
Mo, 29.11. 23:50 845 keine Meldung
Mo, 29.11. 23:40 845 keine Meldung
Mo, 29.11. 23:30 844 + 1,8
Mo, 29.11. 23:00 844 + 1,6
Mo, 29.11. 22:30 844 + 1,9
Mo, 29.11. 22:00 844 + 1,8
Mo, 29.11. 21:30 844 + 2,2
Ortszeit Schneehöhe (cm)
Mo, 29.11. 19:00 30
Mo, 29.11. 13:00 30
Mo, 29.11. 7:00 31
Mo, 29.11. 1:00 29
So, 28.11. 19:00 23
So, 28.11. 13:00 21
So, 28.11. 7:00 22
So, 28.11. 1:00 22
Ortszeit Schneehöhe (cm)
Di, 30.11. 0:30 35
Di, 30.11. 0:20 35
Di, 30.11. 0:10 35
Di, 30.11. 0:00 35
Mo, 29.11. 23:50 35
Mo, 29.11. 23:40 35
Mo, 29.11. 23:30 35
Mo, 29.11. 23:00 35
Mo, 29.11. 22:30 35
Mo, 29.11. 22:00 34
Mo, 29.11. 21:30 34
Link zu dieser Seite / Seite empfehlen

Das Wetter in ...